weather.gov     
National Weather Service

Other Surface Observations
NWS Homepage
This page is being discontinued on March 12, 2014.
The same data is available at this site. Please update your bookmarks.
Thank you, and we apologize for the inconvenience.
Please send an email to SR-SRH.Webmaster@noaa.gov with any concerns.


Current Version
Previous Version:    01  02  03  04  05  06  07  08  09  10  11  12  13  14  15  16  17  18  19  20  21  22  23  24  25  26  27  28  29  30  
   31  32  33  34  35  36  37  38  39  40  41  42  43  44  45  46  47  48  49  50  51  52  53  54  55  56  57  58  59  60  
[Printable]
884
SXUS55 KTFX 231807
OSOTFX

AREA AWOS OBSERVATIONS
NATIONAL WEATHER SERVICE GREAT FALLS MT
1205 PM MDT Wed Apr 23 2014

METAR K1S3 231800Z AUTO 26013G20KT 9SM 07/03 A2969
METAR K38S 231800Z AUTO 06013G19KT 10SM 05/M07 A2983
METAR K6S0 231800Z AUTO 23023G37KT 10SM 06/M09 A2974
METAR K6S5 231800Z AUTO 15017G20KT 10SM 06/M03 A2986
METAR K79S 231800Z AUTO 25022G28KT 11/M07 A2964
METAR K88M 231800Z AUTO 15003KT 10SM 08/M06 A2972
METAR KEKS 231800Z AUTO 21009KT 10SM 03/M08 A2993
METAR KPO1 231800Z AUTO 27019G25KT 10SM 08/04 A2949
METAR KPWD 231800Z AUTO 21006KT 7SM 09/07 A2945
METAR KS59 231800Z AUTO 29003KT 10SM 08/M02 A2978
METAR KS71 231800Z AUTO 25024G32KT 10SM 12/M04 A2953




U.S. Dept. of Commerce
NOAA National Weather Service
1325 East West Highway
Silver Spring, MD 20910
E-mail: w-nws.webmaster@noaa.gov
Page last modified: May 16, 2007
NATIONAL WEATHER SERVICE: for Safety, for Work, for Fun - FOR LIFE